Time;durP1;ratioP1;P1;durP2;ratioP2;P2;SDS_P1;SDS_P2;PMS_P1;PMS_P2;Temp;Humidity;BMP_temperature;BMP_pressure;BME280_temperature;BME280_humidity;BME280_pressure;Samples;Min_cycle;Max_cycle;Signal;HPM_P1;HPM_P2
2023/04/12 00:02:07;;;;;;;6.25;1.83;;;;;;;7.48;87.50;100534.06;4939623;28;20054;-75
2023/04/12 00:04:34;;;;;;;7.50;2.10;;;;;;;7.40;87.28;100510.63;4941725;28;20491;-75
2023/04/12 00:07:01;;;;;;;8.95;2.50;;;;;;;7.41;87.75;100520.19;4938211;28;20043;-74
2023/04/12 00:09:29;;;;;;;8.38;2.22;;;;;;;7.34;87.87;100499.34;4940579;28;20050;-74
2023/04/12 00:11:58;;;;;;;9.10;2.10;;;;;;;7.32;88.03;100495.91;4919655;28;20411;-74
2023/04/12 00:14:24;;;;;;;6.28;1.98;;;;;;;7.31;89.27;100488.94;4956052;28;20050;-74
2023/04/12 00:16:51;;;;;;;5.78;2.25;;;;;;;7.27;88.79;100481.16;4936196;29;20035;-75
2023/04/12 00:19:16;;;;;;;6.72;1.98;;;;;;;7.25;89.06;100482.00;4933086;28;20039;-74
2023/04/12 00:21:43;;;;;;;9.15;2.10;;;;;;;7.21;89.89;100468.16;4955664;28;20045;-74
2023/04/12 00:24:08;;;;;;;6.95;1.85;;;;;;;7.20;90.07;100471.63;4954626;28;20173;-74
2023/04/12 00:26:36;;;;;;;6.65;2.30;;;;;;;7.18;90.19;100470.75;4934662;29;20122;-70
2023/04/12 00:29:01;;;;;;;9.95;2.40;;;;;;;7.15;90.38;100457.72;4937169;29;20139;-70
2023/04/12 00:31:28;;;;;;;8.32;1.90;;;;;;;7.11;90.70;100445.56;4939138;28;20066;-70
2023/04/12 00:33:56;;;;;;;9.77;2.28;;;;;;;7.09;91.25;100439.53;4955041;28;20050;-70
2023/04/12 00:36:21;;;;;;;9.45;2.28;;;;;;;7.08;91.06;100440.38;4951500;28;20513;-70
2023/04/12 00:38:47;;;;;;;6.65;2.10;;;;;;;7.05;91.52;100422.16;4938649;28;20054;-70
2023/04/12 00:41:16;;;;;;;8.75;2.38;;;;;;;7.02;92.58;100416.97;4936050;28;20054;-70
2023/04/12 00:43:42;;;;;;;8.82;2.33;;;;;;;6.96;92.53;100411.78;4952887;28;20439;-69
2023/04/12 00:46:08;;;;;;;6.97;2.08;;;;;;;6.93;92.48;100402.25;4962818;28;20121;-69
2023/04/12 00:48:36;;;;;;;6.65;2.10;;;;;;;6.91;92.58;100391.81;4976765;28;20046;-75
2023/04/12 00:51:03;;;;;;;7.75;1.80;;;;;;;6.90;93.00;100384.03;4973136;28;20538;-75
2023/04/12 00:53:30;;;;;;;7.70;2.20;;;;;;;6.89;93.17;100380.53;4954541;28;20075;-75
2023/04/12 00:55:55;;;;;;;6.75;2.17;;;;;;;6.87;92.78;100387.50;4939568;28;20039;-75
2023/04/12 00:58:23;;;;;;;8.57;2.83;;;;;;;6.86;93.65;100372.72;4954903;28;20046;-75
2023/04/12 01:00:51;;;;;;;8.65;2.75;;;;;;;6.85;94.34;100371.03;4953585;28;20038;-74
2023/04/12 01:03:21;;;;;;;7.65;2.38;;;;;;;6.83;93.98;100351.91;4952252;28;20379;-75
2023/04/12 01:06:28;;;;;;;7.38;2.95;;;;;;;6.82;94.62;100354.53;4954356;28;20061;-75
2023/04/12 01:09:14;;;;;;;5.85;2.17;;;;;;;6.79;94.04;100336.31;4957438;28;20070;-75
2023/04/12 01:12:09;;;;;;;8.10;2.20;;;;;;;6.78;94.44;100327.66;4952862;28;20157;-70
2023/04/12 01:14:44;;;;;;;6.75;2.20;;;;;;;6.73;95.40;100321.59;4945973;28;20046;-70
2023/04/12 01:17:16;;;;;;;8.88;2.20;;;;;;;6.71;95.59;100318.09;4966373;28;20161;-70
2023/04/12 01:20:08;;;;;;;6.03;2.42;;;;;;;6.73;95.54;100318.97;4959547;28;20046;-70
2023/04/12 01:22:44;;;;;;;9.52;2.30;;;;;;;6.73;94.92;100299.00;4948123;28;20038;-70
2023/04/12 01:25:15;;;;;;;12.07;2.78;;;;;;;6.71;95.56;100286.84;4950427;28;20039;-76
2023/04/12 01:27:53;;;;;;;10.35;2.60;;;;;;;6.71;95.83;100274.72;4951903;28;20050;-75
2023/04/12 01:30:20;;;;;;;9.82;2.70;;;;;;;6.70;95.65;100282.53;4951248;28;20031;-75
2023/04/12 01:32:50;;;;;;;7.43;2.80;;;;;;;6.71;94.85;100268.63;4918496;28;20057;-70
2023/04/12 01:35:19;;;;;;;13.10;2.75;;;;;;;6.70;95.81;100259.09;4959421;28;20041;-76
2023/04/12 01:37:45;;;;;;;7.30;2.75;;;;;;;6.70;95.34;100248.69;4952632;28;20479;-75
2023/04/12 01:40:12;;;;;;;8.60;2.45;;;;;;;6.73;95.17;100253.88;4919893;29;20047;-75
2023/04/12 01:42:38;;;;;;;8.77;2.50;;;;;;;6.74;95.04;100246.06;4934752;28;20464;-75
2023/04/12 01:45:04;;;;;;;6.22;2.50;;;;;;;6.75;95.80;100236.50;4931666;28;20038;-76
2023/04/12 01:47:31;;;;;;;6.47;2.88;;;;;;;6.74;95.31;100221.78;4938877;28;20046;-76
2023/04/12 01:50:18;;;;;;;11.75;3.15;;;;;;;6.74;95.69;100217.41;4949620;28;20638;-75
2023/04/12 01:52:58;;;;;;;10.02;2.92;;;;;;;6.76;94.96;100213.03;4944579;28;20521;-76
2023/04/12 01:55:25;;;;;;;7.63;2.92;;;;;;;6.76;94.30;100213.03;4956350;28;20127;-75
2023/04/12 01:57:52;;;;;;;10.60;2.72;;;;;;;6.78;94.80;100199.16;4957558;28;20038;-74
2023/04/12 02:00:19;;;;;;;7.50;2.20;;;;;;;6.78;94.53;100201.75;4945307;28;20451;-75
2023/04/12 02:02:44;;;;;;;8.32;2.67;;;;;;;6.80;94.24;100195.69;4932022;28;20046;-70
2023/04/12 02:05:10;;;;;;;8.88;2.42;;;;;;;6.81;93.58;100181.78;4927507;28;20039;-70
2023/04/12 02:07:36;;;;;;;7.40;2.35;;;;;;;6.82;92.54;100170.47;4944753;28;20061;-69
2023/04/12 02:10:02;;;;;;;8.75;2.25;;;;;;;6.82;93.67;100167.88;4939702;28;20167;-69
2023/04/12 02:12:27;;;;;;;5.47;2.17;;;;;;;6.84;92.18;100147.91;4937941;28;20483;-69
2023/04/12 02:14:53;;;;;;;6.75;2.08;;;;;;;6.84;92.11;100147.03;4941539;28;20109;-69
2023/04/12 02:17:18;;;;;;;7.80;2.28;;;;;;;6.84;92.39;100150.50;4956598;28;20057;-69
2023/04/12 02:19:44;;;;;;;10.05;2.10;;;;;;;6.85;92.09;100149.66;4927255;28;20046;-69
2023/04/12 02:22:10;;;;;;;7.13;2.20;;;;;;;6.88;91.20;100131.38;4957984;28;20046;-69
2023/04/12 02:24:35;;;;;;;7.85;2.45;;;;;;;6.89;90.99;100125.28;4940350;28;20288;-70
2023/04/12 02:27:01;;;;;;;7.57;2.20;;;;;;;6.90;91.32;100111.38;4941410;28;20097;-70
2023/04/12 02:29:26;;;;;;;6.03;1.95;;;;;;;6.93;89.86;100103.53;4943143;28;20072;-69
2023/04/12 02:31:54;;;;;;;5.85;1.70;;;;;;;6.96;90.14;100102.66;4940405;28;20046;-69
2023/04/12 02:34:23;;;;;;;6.15;1.90;;;;;;;6.96;90.94;100094.00;4915123;28;20109;-76
2023/04/12 02:36:49;;;;;;;7.20;2.30;;;;;;;6.96;89.61;100101.81;4973455;28;20356;-71
2023/04/12 02:39:17;;;;;;;6.35;1.92;;;;;;;6.99;90.13;100078.34;4923792;28;20039;-71
2023/04/12 02:41:44;;;;;;;6.50;1.60;;;;;;;6.98;91.43;100081.81;4954373;28;20059;-70
2023/04/12 02:44:10;;;;;;;5.47;1.80;;;;;;;6.94;91.49;100057.53;4957544;28;20034;-69
2023/04/12 02:46:35;;;;;;;5.78;1.92;;;;;;;6.92;91.42;100060.16;4957288;28;20039;-70
2023/04/12 02:49:01;;;;;;;8.43;2.30;;;;;;;6.90;91.54;100056.69;4924126;28;20047;-69
2023/04/12 02:51:27;;;;;;;5.85;1.50;;;;;;;6.89;90.92;100039.34;4937600;29;20039;-70
2023/04/12 02:53:52;;;;;;;5.18;1.83;;;;;;;6.91;90.46;100047.13;4940614;28;20039;-69
2023/04/12 02:56:18;;;;;;;6.53;2.20;;;;;;;6.91;91.23;100028.91;4924394;28;20518;-69
2023/04/12 02:58:43;;;;;;;7.80;1.92;;;;;;;6.88;90.88;100032.41;4940836;28;20451;-69
2023/04/12 03:01:11;;;;;;;7.97;2.20;;;;;;;6.92;89.76;100025.41;4915579;29;20408;-69
2023/04/12 03:03:37;;;;;;;6.97;1.90;;;;;;;6.89;91.38;100008.06;4954024;28;20122;-74
2023/04/12 03:06:03;;;;;;;5.82;1.60;;;;;;;6.89;91.40;99997.66;4954610;28;20114;-74
2023/04/12 03:08:29;;;;;;;6.05;1.80;;;;;;;6.89;91.25;99999.41;4937177;29;20464;-74
2023/04/12 03:10:56;;;;;;;5.15;1.75;;;;;;;6.87;91.99;99989.00;4955461;28;20486;-74
2023/04/12 03:13:22;;;;;;;5.97;2.00;;;;;;;6.83;92.56;99991.66;4936371;29;20476;-74
2023/04/12 03:15:48;;;;;;;6.80;1.80;;;;;;;6.79;93.30;99977.81;4919792;29;20039;-74
2023/04/12 03:18:14;;;;;;;3.75;1.70;;;;;;;6.78;93.22;99980.41;4920200;29;20496;-74
2023/04/12 03:20:42;;;;;;;3.83;1.75;;;;;;;6.74;93.96;99975.25;4919695;29;20404;-74
2023/04/12 03:23:08;;;;;;;6.75;2.10;;;;;;;6.75;93.46;99981.31;4951797;29;20469;-74
2023/04/12 03:25:33;;;;;;;6.47;1.55;;;;;;;6.72;95.57;99973.53;4920865;29;20166;-74
2023/04/12 03:27:59;;;;;;;4.93;1.70;;;;;;;6.69;94.86;99963.16;4918350;29;20502;-74
2023/04/12 03:30:24;;;;;;;5.55;1.80;;;;;;;6.66;96.20;99963.19;4908942;29;20491;-74
2023/04/12 03:32:50;;;;;;;4.45;2.03;;;;;;;6.62;96.34;99956.28;4912055;29;20035;-74
2023/04/12 03:35:15;;;;;;;5.45;2.05;;;;;;;6.58;97.41;99956.31;4916948;29;20070;-76
2023/04/12 03:37:42;;;;;;;6.03;1.95;;;;;;;6.61;96.42;99939.81;4908595;29;20669;-78
2023/04/12 03:40:08;;;;;;;5.70;2.40;;;;;;;6.61;96.70;99944.13;4954910;29;20130;-76
2023/04/12 03:42:34;;;;;;;6.43;2.00;;;;;;;6.55;98.50;99930.31;4937995;29;20046;-77
2023/04/12 03:45:00;;;;;;;8.02;1.95;;;;;;;6.51;99.10;99919.97;4923099;29;20051;-75
2023/04/12 03:47:25;;;;;;;5.22;2.10;;;;;;;6.51;98.91;99928.63;4906612;29;20047;-74
2023/04/12 03:49:54;;;;;;;7.50;2.03;;;;;;;6.53;98.27;99928.59;4919562;29;20484;-74
2023/04/12 03:52:19;;;;;;;8.52;2.55;;;;;;;6.52;99.04;99912.13;4933504;29;20031;-75
2023/04/12 03:54:45;;;;;;;5.65;1.92;;;;;;;6.51;99.42;99913.00;4919340;29;20854;-74
2023/04/12 03:57:10;;;;;;;4.90;1.70;;;;;;;6.54;98.60;99923.38;4921664;29;20060;-74
2023/04/12 03:59:35;;;;;;;6.30;2.10;;;;;;;6.52;99.43;99891.31;4951028;28;20039;-75
2023/04/12 04:02:01;;;;;;;5.88;2.00;;;;;;;6.52;100.00;99900.84;4907701;29;20046;-75
2023/04/12 04:04:27;;;;;;;6.78;2.47;;;;;;;6.53;99.27;99898.22;4927003;29;20373;-74
2023/04/12 04:06:53;;;;;;;9.00;2.13;;;;;;;6.53;99.56;99890.41;4925554;29;20043;-74
2023/04/12 04:09:19;;;;;;;4.25;1.90;;;;;;;6.53;100.00;99890.41;4936256;28;20110;-75
2023/04/12 04:11:45;;;;;;;6.38;2.30;;;;;;;6.49;100.00;99883.50;4939466;28;20039;-74
2023/04/12 04:14:11;;;;;;;5.28;2.17;;;;;;;6.46;100.00;99860.13;4972378;28;20042;-75
2023/04/12 04:16:36;;;;;;;6.18;2.17;;;;;;;6.43;100.00;99873.16;4924357;28;20050;-74
2023/04/12 04:19:02;;;;;;;7.75;2.20;;;;;;;6.44;100.00;99869.69;4925025;28;20053;-74
2023/04/12 04:21:31;;;;;;;4.38;2.33;;;;;;;6.46;100.00;99867.94;4956040;28;20048;-74
2023/04/12 04:23:59;;;;;;;5.95;2.42;;;;;;;6.49;100.00;99882.66;4938221;29;20129;-74
2023/04/12 04:26:33;;;;;;;8.15;2.47;;;;;;;6.47;100.00;99856.66;4939684;28;20047;-74
2023/04/12 04:29:03;;;;;;;4.93;1.98;;;;;;;6.46;100.00;99851.47;4926174;28;20043;-73
2023/04/12 04:31:32;;;;;;;5.25;2.10;;;;;;;6.42;100.00;99845.41;4967435;28;20049;-74
2023/04/12 04:46:50;;;;;;;6.47;2.33;;;;;;;6.41;100.00;99836.75;5084583;23;20117;-71
2023/04/12 05:12:54;;;;;;;5.68;2.50;;;;;;;6.51;100.00;99798.47;3206153;23;21072;-74
2023/04/12 05:24:11;;;;;;;4.93;2.00;;;;;;;6.53;100.00;99785.44;5628138;23;20071;31
2023/04/12 06:01:50;;;;;;;6.38;2.90;;;;;;;6.68;100.00;99776.56;1284073;26;20498;-76
2023/04/12 06:04:16;;;;;;;5.53;2.55;;;;;;;6.68;100.00;99766.16;4922306;28;20125;-76
2023/04/12 06:06:42;;;;;;;6.50;3.25;;;;;;;6.72;100.00;99765.25;4926781;28;20054;-76
2023/04/12 06:09:08;;;;;;;5.05;2.90;;;;;;;6.71;100.00;99772.19;4938262;28;20039;-76
2023/04/12 06:11:34;;;;;;;4.55;2.90;;;;;;;6.72;100.00;99763.53;4914557;29;20062;-76
2023/04/12 06:14:00;;;;;;;10.75;3.30;;;;;;;6.72;100.00;99770.44;4936495;29;20035;-75
2023/04/12 06:16:26;;;;;;;5.07;3.05;;;;;;;6.73;100.00;99759.16;4942917;28;20122;-76
2023/04/12 06:18:51;;;;;;;6.05;3.15;;;;;;;6.73;100.00;99766.97;4920294;28;20038;-75
2023/04/12 06:21:18;;;;;;;6.15;3.00;;;;;;;6.73;100.00;99766.97;4918773;28;20495;-76
2023/04/12 06:23:43;;;;;;;5.07;3.53;;;;;;;6.76;100.00;99759.97;4923565;29;20473;-76
2023/04/12 06:26:11;;;;;;;5.97;3.28;;;;;;;6.77;100.00;99745.22;4954662;28;20042;-76
2023/04/12 06:28:37;;;;;;;6.18;3.42;;;;;;;6.81;100.00;99754.72;4944551;28;20066;-76
2023/04/12 06:31:03;;;;;;;5.18;3.30;;;;;;;6.80;100.00;99742.56;4938866;28;20038;-76
2023/04/12 06:33:29;;;;;;;5.65;3.40;;;;;;;6.85;100.00;99750.31;4937691;28;21324;-76
2023/04/12 06:35:54;;;;;;;7.03;3.17;;;;;;;6.86;100.00;99750.28;4920567;29;20153;-76
2023/04/12 06:38:20;;;;;;;5.43;3.30;;;;;;;6.88;100.00;99747.66;4936338;28;20570;-76
2023/04/12 06:40:46;;;;;;;5.65;3.88;;;;;;;6.89;100.00;99737.22;4940970;28;20043;-76
2023/04/12 06:43:11;;;;;;;6.70;3.30;;;;;;;6.91;100.00;99742.41;4942791;28;20376;-76
2023/04/12 06:45:37;;;;;;;6.80;3.67;;;;;;;6.92;100.00;99738.94;4958388;28;20058;-76
2023/04/12 06:48:05;;;;;;;5.65;3.47;;;;;;;6.92;100.00;99733.72;4926373;28;20055;-75
2023/04/12 06:50:30;;;;;;;8.43;3.40;;;;;;;6.96;100.00;99734.56;4941906;28;20125;-76
2023/04/12 06:52:56;;;;;;;6.47;3.65;;;;;;;6.98;100.00;99730.16;4942396;28;20154;-76
2023/04/12 06:55:21;;;;;;;6.05;3.30;;;;;;;7.01;100.00;99728.38;4926131;28;20038;-76
2023/04/12 06:57:47;;;;;;;4.07;2.72;;;;;;;7.04;100.00;99735.28;4957992;28;20039;-76
2023/04/12 07:00:14;;;;;;;6.88;3.00;;;;;;;7.06;100.00;99736.97;4925584;28;20478;-76
2023/04/12 07:02:40;;;;;;;6.80;3.50;;;;;;;7.09;100.00;99736.06;4941513;28;20093;-76
2023/04/12 07:05:05;;;;;;;6.05;3.00;;;;;;;7.11;100.00;99737.78;4940848;28;20452;-76
2023/04/12 07:07:31;;;;;;;5.70;2.92;;;;;;;7.11;100.00;99736.91;4932952;28;20046;-72
2023/04/12 07:09:59;;;;;;;3.42;3.03;;;;;;;7.14;100.00;99730.78;4926084;28;20094;-72
2023/04/12 07:12:24;;;;;;;5.03;2.70;;;;;;;7.21;100.00;99743.72;4941241;28;20065;-72
2023/04/12 07:14:50;;;;;;;5.80;2.85;;;;;;;7.21;100.00;99742.84;4941533;28;20487;-72
2023/04/12 07:17:17;;;;;;;5.68;2.92;;;;;;;7.25;100.00;99745.38;4941821;28;20058;-72
2023/04/12 07:19:43;;;;;;;4.72;3.15;;;;;;;7.29;100.00;99740.97;4926292;28;20511;-73
2023/04/12 07:22:09;;;;;;;8.43;4.55;;;;;;;7.34;100.00;99754.81;4924690;28;20105;-72
2023/04/12 07:24:35;;;;;;;7.45;4.40;;;;;;;7.39;100.00;99750.38;4935760;28;20056;-72
2023/04/12 07:27:00;;;;;;;6.97;4.60;;;;;;;7.43;100.00;99740.75;4954865;28;20121;-73
2023/04/12 07:29:25;;;;;;;7.72;4.90;;;;;;;7.51;100.00;99748.44;4956564;28;20558;-72
2023/04/12 07:31:51;;;;;;;10.43;5.53;;;;;;;7.58;100.00;99755.28;4917980;28;20055;-72
2023/04/12 07:34:16;;;;;;;8.27;4.95;;;;;;;7.60;100.00;99748.28;4950566;28;20042;-72
2023/04/12 07:36:45;;;;;;;8.68;5.00;;;;;;;7.65;100.00;99750.81;4939669;28;20427;-75
2023/04/12 07:39:13;;;;;;;10.35;4.90;;;;;;;7.68;100.00;99754.22;4939813;28;20051;-73
2023/04/12 07:41:41;;;;;;;11.55;4.65;;;;;;;7.70;100.00;99755.09;4918015;28;20501;-75
2023/04/12 07:44:06;;;;;;;8.43;4.75;;;;;;;7.75;100.00;99747.16;4937484;28;20065;-75
2023/04/12 07:46:32;;;;;;;10.15;4.65;;;;;;;7.77;100.00;99741.03;4950549;28;20055;-73
2023/04/12 07:48:57;;;;;;;7.85;3.95;;;;;;;7.86;100.00;99734.81;4928219;28;20073;-73
2023/04/12 07:51:25;;;;;;;9.45;4.25;;;;;;;7.91;100.00;99732.09;4926658;28;20043;-72
2023/04/12 07:53:51;;;;;;;11.40;3.70;;;;;;;7.94;100.00;99737.25;4942908;28;20047;-73
2023/04/12 07:56:16;;;;;;;9.68;3.97;;;;;;;8.04;100.00;99735.34;4955712;28;20447;-72
2023/04/12 07:58:42;;;;;;;9.55;3.90;;;;;;;8.02;100.00;99737.97;4930945;28;20046;-72
2023/04/12 08:01:26;;;;;;;8.10;3.88;;;;;;;8.08;100.00;99732.63;4955880;28;20393;-75
2023/04/12 08:03:51;;;;;;;7.97;3.85;;;;;;;8.11;100.00;99736.94;4929309;28;20065;-76
2023/04/12 08:06:17;;;;;;;8.63;4.03;;;;;;;8.15;100.00;99733.38;4940563;28;20046;-76
2023/04/12 08:08:43;;;;;;;8.85;4.03;;;;;;;8.23;99.84;99722.78;4952336;28;20041;-72
2023/04/12 08:11:09;;;;;;;8.40;4.85;;;;;;;8.26;99.33;99734.03;4923528;28;20061;-72
2023/04/12 08:13:34;;;;;;;10.55;4.90;;;;;;;8.36;99.86;99731.22;4939431;28;20035;-73
2023/04/12 08:16:00;;;;;;;10.25;4.15;;;;;;;8.37;98.87;99731.19;4949864;29;20040;-72
2023/04/12 08:18:28;;;;;;;10.80;4.50;;;;;;;8.46;99.03;99743.22;4957054;28;20035;-76
2023/04/12 08:20:54;;;;;;;12.27;4.82;;;;;;;8.53;99.17;99733.53;4957032;28;20074;-76
2023/04/12 08:23:20;;;;;;;11.45;5.05;;;;;;;8.60;99.66;99741.19;4924602;28;20105;-76
2023/04/12 08:25:45;;;;;;;13.23;4.40;;;;;;;8.59;98.61;99752.53;4937743;29;20447;-76
2023/04/12 08:28:11;;;;;;;8.68;3.55;;;;;;;8.56;96.65;99760.44;4933527;28;20494;-76
2023/04/12 08:30:36;;;;;;;5.65;2.67;;;;;;;8.53;94.95;99752.66;4930078;29;20407;-76
2023/04/12 08:33:02;;;;;;;9.35;3.25;;;;;;;8.49;95.03;99749.25;4950801;28;20035;-76
2023/04/12 08:35:27;;;;;;;11.60;3.83;;;;;;;8.46;94.99;99754.56;4925267;28;20049;-77
2023/04/12 08:37:52;;;;;;;9.68;3.13;;;;;;;8.44;95.50;99763.25;4939036;28;20406;-77
2023/04/12 08:40:20;;;;;;;8.45;3.20;;;;;;;8.43;95.67;99759.81;4939483;28;20473;-77
2023/04/12 08:42:46;;;;;;;10.10;3.75;;;;;;;8.37;95.70;99764.28;4939055;28;20253;-78
2023/04/12 08:45:11;;;;;;;8.70;3.45;;;;;;;8.40;95.77;99759.00;4956531;28;20372;-78
2023/04/12 08:47:41;;;;;;;8.52;3.65;;;;;;;8.42;96.11;99751.97;4921095;28;20401;-78
2023/04/12 08:50:08;;;;;;;10.30;3.97;;;;;;;8.43;96.68;99741.53;4945823;28;20042;-78
2023/04/12 08:52:35;;;;;;;7.47;4.28;;;;;;;8.47;96.34;99740.59;4949194;28;20126;-78
2023/04/12 08:55:03;;;;;;;14.70;4.20;;;;;;;8.56;96.70;99736.94;4937108;28;20035;-78
2023/04/12 08:57:28;;;;;;;11.10;4.80;;;;;;;8.77;98.16;99732.13;4956380;28;20077;-78
2023/04/12 09:00:00;;;;;;;10.57;4.90;;;;;;;8.99;98.49;99741.22;4940121;28;20070;-77
2023/04/12 09:02:26;;;;;;;10.25;4.32;;;;;;;9.12;97.15;99744.41;4955640;28;20047;-78
2023/04/12 09:04:52;;;;;;;9.15;4.47;;;;;;;9.23;95.21;99746.75;4954213;28;20097;-79
2023/04/12 09:07:18;;;;;;;9.95;3.70;;;;;;;9.33;93.43;99743.03;4952250;28;20559;-78
2023/04/12 09:09:45;;;;;;;10.52;5.20;;;;;;;9.44;93.90;99737.53;4924636;28;20046;-72
2023/04/12 09:12:14;;;;;;;15.07;5.43;;;;;;;9.70;96.49;99729.03;4955612;28;20462;-72
2023/04/12 09:14:43;;;;;;;11.30;4.70;;;;;;;9.99;95.75;99727.38;4954070;28;20054;-78
2023/04/12 09:17:26;;;;;;;13.10;5.25;;;;;;;10.39;95.18;99718.44;4956046;28;20031;-78
2023/04/12 09:19:56;;;;;;;56.95;7.30;;;;;;;11.00;99.85;99722.72;4956012;28;20093;-79
2023/04/12 09:22:35;;;;;;;14.32;4.88;;;;;;;11.18;92.70;99715.22;4932388;28;20057;-78
2023/04/12 09:25:01;;;;;;;214.13;20.77;;;;;;;12.12;100.00;99706.78;4933115;28;20321;-79
2023/04/12 09:27:29;;;;;;;25.98;7.80;;;;;;;12.36;100.00;99712.91;4948937;28;20397;-79
2023/04/12 09:30:17;;;;;;;18.08;6.72;;;;;;;12.55;95.51;99713.06;4930324;28;20043;-78
2023/04/12 09:32:43;;;;;;;15.50;5.03;;;;;;;12.73;89.32;99714.13;4953240;28;20085;-78
2023/04/12 09:35:09;;;;;;;16.02;5.25;;;;;;;13.28;91.45;99720.75;4939886;28;20130;-78
2023/04/12 09:37:35;;;;;;;18.15;6.40;;;;;;;13.51;88.53;99711.94;4955603;28;20041;-79
2023/04/12 09:40:06;;;;;;;20.35;5.53;;;;;;;13.63;83.26;99719.31;4956380;28;20030;-78
2023/04/12 09:42:36;;;;;;;16.92;5.47;;;;;;;13.66;77.07;99707.78;4939697;28;20043;-78
2023/04/12 09:45:22;;;;;;;16.27;6.07;;;;;;;13.84;82.03;99714.06;4954677;28;20485;-79
2023/04/12 09:47:48;;;;;;;16.67;6.15;;;;;;;13.80;78.53;99702.78;4940248;28;20065;-78
2023/04/12 09:50:22;;;;;;;15.30;5.53;;;;;;;13.83;80.36;99710.56;4938698;28;20042;-79
2023/04/12 09:52:48;;;;;;;14.13;5.50;;;;;;;13.75;76.80;99699.50;4953962;28;20355;-78
2023/04/12 09:55:15;;;;;;;14.00;6.07;;;;;;;13.47;73.34;99700.66;4950895;28;20031;-78
2023/04/12 09:57:43;;;;;;;13.07;5.60;;;;;;;13.37;75.76;99701.13;4936315;29;20048;-78
2023/04/12 10:00:16;;;;;;;15.52;4.93;;;;;;;13.32;74.53;99693.41;4946049;28;20093;-78
2023/04/12 10:02:44;;;;;;;17.23;5.60;;;;;;;13.23;74.23;99694.63;4915016;28;20062;-78
2023/04/12 10:05:16;;;;;;;18.00;5.82;;;;;;;13.17;77.28;99697.50;4945473;28;20043;-77
2023/04/12 10:07:42;;;;;;;16.60;5.28;;;;;;;13.28;76.00;99699.69;4955855;28;20395;-78
2023/04/12 10:10:11;;;;;;;18.35;5.80;;;;;;;13.54;76.73;99690.75;4935716;28;20043;-78
2023/04/12 10:12:38;;;;;;;16.02;5.32;;;;;;;13.71;73.25;99699.72;4935973;28;20071;-78
2023/04/12 10:15:06;;;;;;;19.88;5.53;;;;;;;13.57;72.70;99677.44;4929523;28;20517;-77
2023/04/12 10:17:33;;;;;;;12.70;5.05;;;;;;;13.66;73.18;99677.06;4949688;28;20034;-78
2023/04/12 10:20:00;;;;;;;16.05;5.88;;;;;;;13.54;73.07;99685.47;4953766;28;20031;-78
2023/04/12 10:22:26;;;;;;;15.07;5.20;;;;;;;13.15;66.98;99697.56;4950562;28;20035;-78
2023/04/12 10:24:51;;;;;;;16.88;5.90;;;;;;;13.08;72.70;99706.63;4925849;28;20062;-77
2023/04/12 10:27:25;;;;;;;18.02;5.32;;;;;;;12.86;71.41;99713.63;4935055;28;20047;-77
2023/04/12 10:29:50;;;;;;;13.07;4.97;;;;;;;12.76;71.72;99708.75;4920512;28;20391;-70
2023/04/12 10:32:22;;;;;;;15.07;4.82;;;;;;;12.55;71.21;99705.19;4952124;28;20042;-70
2023/04/12 10:35:13;;;;;;;17.20;5.30;;;;;;;12.57;72.50;99699.84;4947613;28;20038;-71
2023/04/12 10:38:00;;;;;;;16.08;4.78;;;;;;;12.37;71.06;99698.88;4972254;28;20093;-70
2023/04/12 10:40:31;;;;;;;13.38;4.50;;;;;;;12.27;72.25;99700.97;4955978;28;20260;-70
2023/04/12 10:43:21;;;;;;;16.67;4.70;;;;;;;12.27;71.10;99697.50;4936837;28;20046;-77
2023/04/12 10:45:48;;;;;;;18.58;4.38;;;;;;;12.13;69.09;99705.88;4949070;28;20509;-77
2023/04/12 10:48:49;;;;;;;20.35;4.90;;;;;;;12.15;71.11;99706.66;4933730;28;20034;-78
2023/04/12 10:51:25;;;;;;;16.63;4.47;;;;;;;11.95;69.35;99704.75;4966815;28;20448;-78
2023/04/12 10:54:11;;;;;;;22.40;5.25;;;;;;;11.94;70.49;99695.19;4949600;28;20089;-77
2023/04/12 10:56:41;;;;;;;13.98;4.07;;;;;;;11.76;68.82;99697.50;4947517;28;20448;-78
2023/04/12 10:59:11;;;;;;;14.98;4.25;;;;;;;11.74;71.07;99698.47;4923928;29;20120;-77
2023/04/12 11:01:37;;;;;;;15.48;3.85;;;;;;;11.59;69.28;99711.22;4951991;28;20130;-77
2023/04/12 11:04:13;;;;;;;12.43;3.25;;;;;;;11.60;69.31;99704.19;4975651;28;20043;-77
2023/04/12 11:06:55;;;;;;;18.27;4.68;;;;;;;11.52;67.94;99709.72;4957201;28;20051;-77
2023/04/12 11:09:32;;;;;;;19.27;3.53;;;;;;;11.40;66.73;99713.59;4954342;28;20035;-71
2023/04/12 11:12:04;;;;;;;18.02;3.80;;;;;;;11.26;68.97;99716.69;4940993;28;20051;-78
2023/04/12 11:14:35;;;;;;;15.35;3.00;;;;;;;11.09;69.44;99730.31;4952502;29;20031;-78
2023/04/12 11:17:13;;;;;;;14.93;3.83;;;;;;;10.88;70.36;99734.47;4939279;29;20459;-79
2023/04/12 11:19:49;;;;;;;18.33;3.17;;;;;;;10.61;71.78;99725.69;4952644;28;20114;-77
2023/04/12 11:22:20;;;;;;;14.52;3.38;;;;;;;10.61;74.37;99728.28;4957946;28;20394;-77
2023/04/12 11:24:51;;;;;;;19.13;3.92;;;;;;;10.64;75.47;99730.81;4942508;28;20101;-78
2023/04/12 11:27:18;;;;;;;12.57;3.28;;;;;;;10.63;74.95;99736.97;4942080;28;20126;-77
2023/04/12 11:29:47;;;;;;;14.85;3.75;;;;;;;10.64;77.33;99733.44;4949999;28;20081;-71
2023/04/12 11:32:13;;;;;;;15.07;3.58;;;;;;;10.65;77.44;99736.94;4939046;29;20416;-77
2023/04/12 11:34:40;;;;;;;17.30;4.70;;;;;;;10.55;76.97;99742.44;4942106;28;20039;-79
2023/04/12 11:37:09;;;;;;;17.95;4.28;;;;;;;10.63;77.23;99731.75;4926145;28;20041;-78
2023/04/12 11:39:37;;;;;;;14.98;4.93;;;;;;;10.55;76.81;99739.81;4940953;28;20061;-77
2023/04/12 11:42:07;;;;;;;15.45;4.90;;;;;;;10.61;76.12;99736.16;4957611;28;20038;-78
2023/04/12 11:44:33;;;;;;;14.00;5.28;;;;;;;10.53;76.63;99733.78;4927133;28;20424;-77
2023/04/12 11:47:00;;;;;;;18.38;5.45;;;;;;;10.47;77.46;99728.69;4957541;28;20038;-71
2023/04/12 11:49:27;;;;;;;23.42;5.90;;;;;;;10.51;78.18;99724.25;4940827;28;20186;-77
2023/04/12 11:52:06;;;;;;;19.02;5.57;;;;;;;10.53;78.70;99718.06;4941411;28;20039;-78
2023/04/12 11:54:33;;;;;;;23.48;6.70;;;;;;;10.65;82.18;99719.44;4957632;28;20386;-77
2023/04/12 11:56:59;;;;;;;20.30;5.85;;;;;;;10.73;81.40;99713.97;4932229;28;20045;-71
2023/04/12 11:59:33;;;;;;;19.10;5.82;;;;;;;10.99;80.89;99721.03;4957595;28;20129;-71
2023/04/12 12:02:04;;;;;;;14.25;4.57;;;;;;;11.06;74.38;99717.31;4956940;28;20371;-71
2023/04/12 12:04:31;;;;;;;16.92;4.53;;;;;;;11.14;74.65;99724.09;4957207;28;20097;-77
2023/04/12 12:06:58;;;;;;;18.75;5.20;;;;;;;11.46;76.07;99716.91;4939849;28;20043;-78
2023/04/12 12:09:28;;;;;;;20.60;5.15;;;;;;;11.90;75.89;99717.16;4941541;28;20046;-71
2023/04/12 12:11:54;;;;;;;17.23;4.63;;;;;;;12.14;75.44;99712.84;4923032;29;20039;-71
2023/04/12 12:14:22;;;;;;;18.35;5.20;;;;;;;12.36;75.25;99722.56;4955663;28;20284;-72
2023/04/12 12:16:59;;;;;;;17.52;4.30;;;;;;;12.33;71.92;99717.44;4925831;28;20051;-77
2023/04/12 12:19:32;;;;;;;19.45;4.72;;;;;;;12.32;69.76;99719.19;4925319;28;20045;-71
2023/04/12 12:22:20;;;;;;;15.35;5.15;;;;;;;12.41;74.50;99715.34;4955328;28;20138;-71
2023/04/12 12:24:59;;;;;;;17.80;5.00;;;;;;;12.42;73.54;99723.16;4938210;29;20507;-78
2023/04/12 12:27:34;;;;;;;11.90;3.75;;;;;;;12.21;68.83;99734.47;4953817;28;20375;-71
2023/04/12 12:30:05;;;;;;;16.02;3.45;;;;;;;11.90;66.59;99746.03;4956204;28;20138;-77
2023/04/12 12:32:38;;;;;;;13.02;3.25;;;;;;;11.62;67.94;99757.47;4925212;28;20613;-76
2023/04/12 12:35:09;;;;;;;8.80;2.50;;;;;;;11.15;65.03;99784.34;4956353;28;20037;-77
2023/04/12 12:37:36;;;;;;;8.60;2.50;;;;;;;10.85;68.64;99786.13;4954006;28;20039;-77
2023/04/12 12:40:12;;;;;;;10.57;3.35;;;;;;;10.36;66.47;99789.25;4939507;28;20046;-77
2023/04/12 12:42:50;;;;;;;9.30;2.70;;;;;;;10.09;69.02;99796.06;4954868;28;20047;-76
2023/04/12 12:45:19;;;;;;;12.35;2.50;;;;;;;9.80;67.94;99795.06;4953981;28;20031;-73
2023/04/12 12:47:53;;;;;;;11.68;2.67;;;;;;;9.65;71.01;99796.28;4955404;28;20105;-72
2023/04/12 12:50:22;;;;;;;11.88;3.45;;;;;;;9.54;72.43;99809.63;4940684;28;20384;-72
2023/04/12 12:52:48;;;;;;;12.88;3.92;;;;;;;9.55;73.97;99789.56;4937121;29;20150;-72
2023/04/12 12:55:17;;;;;;;12.80;3.63;;;;;;;9.54;75.29;99791.34;4944567;28;20046;-72
2023/04/12 12:57:44;;;;;;;12.97;3.73;;;;;;;9.64;76.81;99763.19;4946297;28;20031;-72
2023/04/12 13:00:14;;;;;;;14.93;4.47;;;;;;;9.67;75.07;99767.50;4935193;28;20050;-72